Terminal Aerodrome Forecast
Issued by NWS Albany, NY

Home | Current Version | Previous Version | Text Only | Print | Product List | Glossary On
Versions: 1 2 3 4 5 6 7 8 9 10 11 12 13 14 15 16 17 18 19 20 21 22 23 24 25 26 27 28 29 30 31
836
FTUS41 KALY 111122 CCA
TAFGFL
TAF COR
KGFL 111122Z 1112/1212 28012G17KT P6SM VCSH OVC080
     FM111500 28014G22KT P6SM BKN045 BKN080
     FM120100 29007KT P6SM SCT045
     FM120600 28003KT P6SM SKC=

USA.gov is the U.S. government's official web portal to all federal, state and local government web resources and services.